To NAV CANADA Home Page Login to a new session Search on AWWS site Feedback and Comments Disclaimer Vers la page française équivalente Tips FAQ What's new on the site To the Forecasts and Observations / NOTAM section To "File a Flight Plan" website Publications and other links Update of the User's profile FIC Telephone Numbers My Weather Data Folder Route Weather Data Regional Weather Data Local Weather Data To the Forecasts and Observations / NOTAM section
Request Generated 04/18/2014 at 15:37:58 UTC . Weather information available at that time is displayed.

METAR/TAF

VANCOUVER/VANCOUVER INTL/BC    

METAR CYVR 181500Z 27010KT 20SM FEW035 BKN058 08/05 A3002 RMK SC1SC4
SLP167=
METAR CYVR 181400Z 25011KT 20SM FEW040 BKN062 08/06 A3000 RMK SC2SC4
CU ASOCTD SLP158=
METAR CYVR 181300Z 26012KT 20SM SCT033 OVC064 08/04 A2996 RMK SC3SC5
SLP146=

TAF CYVR 181438Z 1815/1918 25010G20KT P6SM FEW025 BKN060
FM181700 25010KT P6SM FEW050
BECMG 1821/1823 12006KT
FM190200 10008KT P6SM FEW040 BKN140
FM191600 10012KT P6SM BKN060
RMK NXT FCST BY 181800Z=
Your time UTC time
Weather data provided by Environment Canada and NAV CANADA